createdAt,value
2022-08-11T00:01:08.931Z,15.28
2022-08-11T00:03:43.432Z,15.23
2022-08-11T00:06:13.964Z,15.21
2022-08-11T00:08:42.383Z,15.23
2022-08-11T00:11:12.332Z,15.16
2022-08-11T00:13:42.096Z,15.17
2022-08-11T00:16:14.593Z,14.99
2022-08-11T00:18:44.046Z,15.05
2022-08-11T00:21:12.770Z,15.09
2022-08-11T00:23:43.621Z,15.10
2022-08-11T00:26:13.286Z,15.06
2022-08-11T00:28:41.675Z,15.06
2022-08-11T00:31:10.844Z,15.06
2022-08-11T00:33:41.129Z,15.02
2022-08-11T00:36:22.006Z,15.06
2022-08-11T00:38:53.995Z,15.01
2022-08-11T00:41:33.030Z,15.03
2022-08-11T00:44:37.730Z,14.93
2022-08-11T00:47:18.617Z,14.86
2022-08-11T00:50:05.640Z,14.71
2022-08-11T00:53:10.791Z,14.71
2022-08-11T00:56:21.193Z,14.75
2022-08-11T00:59:36.341Z,14.58
2022-08-11T01:02:17.458Z,14.62
2022-08-11T01:05:15.332Z,14.68
2022-08-11T01:08:27.866Z,14.68
2022-08-11T01:11:24.883Z,14.61
2022-08-11T01:14:26.123Z,14.53
2022-08-11T01:17:43.013Z,14.49
2022-08-11T01:20:47.573Z,14.29
2022-08-11T01:23:41.198Z,14.34
2022-08-11T01:26:53.544Z,14.32
2022-08-11T01:29:39.416Z,14.21
2022-08-11T01:32:36.164Z,14.22
2022-08-11T01:35:22.614Z,14.12
2022-08-11T01:38:28.924Z,14.12
2022-08-11T01:41:24.122Z,14.20
2022-08-11T01:44:22.785Z,14.23
2022-08-11T01:46:53.435Z,14.23
2022-08-11T01:49:29.162Z,14.19
2022-08-11T01:52:34.651Z,14.04
2022-08-11T01:55:10.366Z,14.07
2022-08-11T01:57:43.701Z,14.07
2022-08-11T02:00:15.505Z,14.08
2022-08-11T02:02:53.918Z,14.05
2022-08-11T02:05:28.766Z,14.03
2022-08-11T02:08:02.721Z,14.02
2022-08-11T02:10:53.306Z,13.73
2022-08-11T02:13:35.577Z,13.69
2022-08-11T02:16:11.601Z,13.80
2022-08-11T02:19:01.044Z,13.79
2022-08-11T02:21:49.883Z,13.74
2022-08-11T02:24:23.021Z,13.84
2022-08-11T02:26:57.025Z,13.84
2022-08-11T02:29:26.921Z,13.89
2022-08-11T02:32:28.768Z,13.83
2022-08-11T02:35:09.443Z,13.82
2022-08-11T02:37:51.382Z,13.82
2022-08-11T02:40:26.129Z,13.82
2022-08-11T02:43:05.802Z,13.77
2022-08-11T02:45:47.214Z,13.78
2022-08-11T02:48:38.560Z,13.81
2022-08-11T02:51:15.350Z,13.79
2022-08-11T02:53:58.095Z,13.79
2022-08-11T02:56:39.037Z,13.79
2022-08-11T02:59:27.781Z,13.79
2022-08-11T03:02:02.432Z,13.76
2022-08-11T03:04:39.086Z,13.72
2022-08-11T03:07:29.077Z,13.70
2022-08-11T03:10:06.964Z,13.62
2022-08-11T03:13:03.306Z,13.54
2022-08-11T03:16:02.138Z,13.62
2022-08-11T03:18:35.658Z,13.59
2022-08-11T03:21:09.031Z,13.58
2022-08-11T03:23:42.665Z,13.58
2022-08-11T03:26:15.628Z,13.58
2022-08-11T03:28:47.134Z,13.57
2022-08-11T03:31:24.674Z,13.53
2022-08-11T03:34:06.605Z,13.49
2022-08-11T03:37:16.348Z,13.48
2022-08-11T03:39:56.748Z,13.46
2022-08-11T03:42:28.672Z,13.48
2022-08-11T03:45:12.538Z,13.38
2022-08-11T03:47:55.703Z,13.36
2022-08-11T03:50:42.354Z,13.37
2022-08-11T03:53:16.297Z,13.41
2022-08-11T03:56:08.189Z,13.39
2022-08-11T03:58:56.373Z,13.41
2022-08-11T04:01:59.186Z,13.43
2022-08-11T04:04:55.242Z,13.43
2022-08-11T04:07:41.305Z,13.36
2022-08-11T04:10:38.774Z,13.34
2022-08-11T04:13:45.661Z,13.37
2022-08-11T04:16:43.993Z,13.30
2022-08-11T04:19:36.410Z,13.20
2022-08-11T04:22:43.307Z,13.25
2022-08-11T04:25:24.752Z,13.31
2022-08-11T04:28:08.634Z,13.40
2022-08-11T04:31:06.139Z,13.42
2022-08-11T04:33:56.598Z,13.48
2022-08-11T04:36:57.926Z,13.52
2022-08-11T04:39:40.672Z,13.53
2022-08-11T04:42:34.003Z,13.59
2022-08-11T04:45:27.261Z,13.61
2022-08-11T04:48:25.509Z,13.69
2022-08-11T04:51:51.053Z,13.77
2022-08-11T04:54:41.832Z,13.93
2022-08-11T04:57:33.101Z,14.01
2022-08-11T05:00:23.214Z,14.09
2022-08-11T05:03:19.200Z,14.21
2022-08-11T05:06:09.712Z,14.34
2022-08-11T05:08:53.672Z,14.44
2022-08-11T05:11:45.881Z,14.53
2022-08-11T05:14:48.053Z,14.58
2022-08-11T05:17:34.898Z,14.67
2022-08-11T05:20:22.536Z,14.75
2022-08-11T05:23:09.718Z,14.91
2022-08-11T05:26:44.641Z,15.07
2022-08-11T05:29:19.477Z,15.19
2022-08-11T05:32:14.529Z,15.46
2022-08-11T05:34:52.936Z,15.59
2022-08-11T05:37:27.299Z,15.77
2022-08-11T05:40:16.636Z,16.00
2022-08-11T05:43:08.972Z,16.27
2022-08-11T05:46:02.862Z,16.60
2022-08-11T05:48:52.702Z,16.90
2022-08-11T05:51:38.065Z,17.10
2022-08-11T05:54:29.283Z,17.19
2022-08-11T05:57:00.132Z,17.50
2022-08-11T05:59:29.489Z,17.83
2022-08-11T06:02:01.928Z,18.20
2022-08-11T06:04:30.269Z,18.43
2022-08-11T06:06:59.593Z,18.70
2022-08-11T06:09:33.670Z,18.92
2022-08-11T06:12:04.459Z,19.15
2022-08-11T06:14:34.052Z,19.39
2022-08-11T06:17:05.405Z,19.57
2022-08-11T06:19:40.117Z,19.75
2022-08-11T06:22:09.784Z,20.02
2022-08-11T06:24:40.150Z,20.23
2022-08-11T06:27:12.680Z,20.53
2022-08-11T06:29:55.048Z,20.83
2022-08-11T06:32:25.488Z,20.96
2022-08-11T06:35:02.889Z,21.29
2022-08-11T06:37:42.208Z,21.47
2022-08-11T06:40:12.785Z,21.91
2022-08-11T06:42:49.387Z,22.13
2022-08-11T06:45:28.951Z,22.66
2022-08-11T06:48:00.737Z,23.44
2022-08-11T06:50:47.347Z,24.16
2022-08-11T06:53:17.209Z,24.56
2022-08-11T06:56:04.455Z,25.01
2022-08-11T06:58:51.557Z,25.70
2022-08-11T07:01:28.402Z,26.25
2022-08-11T07:04:01.162Z,27.19
2022-08-11T07:06:51.144Z,27.61
2022-08-11T07:10:06.705Z,28.36
2022-08-11T07:12:59.199Z,28.37
2022-08-11T07:16:10.924Z,29.44
2022-08-11T07:18:53.679Z,29.37
2022-08-11T07:22:02.809Z,29.74
2022-08-11T07:25:02.038Z,30.16
2022-08-11T07:27:53.892Z,30.46
2022-08-11T07:30:22.410Z,30.25
2022-08-11T07:32:52.602Z,30.68
2022-08-11T07:35:25.717Z,30.89
2022-08-11T07:38:02.058Z,31.09
2022-08-11T07:40:30.297Z,31.19
2022-08-11T07:42:58.321Z,31.21
2022-08-11T07:45:44.633Z,31.38
2022-08-11T07:48:30.660Z,31.37
2022-08-11T07:51:17.446Z,31.38
2022-08-11T07:53:58.271Z,31.26
2022-08-11T07:56:55.431Z,31.58
2022-08-11T08:00:03.858Z,31.60
2022-08-11T08:02:45.126Z,31.30
2022-08-11T08:05:30.057Z,31.41
2022-08-11T08:08:17.324Z,31.51
2022-08-11T08:11:03.192Z,31.73
2022-08-11T08:13:50.708Z,31.38
2022-08-11T08:16:35.792Z,31.60
2022-08-11T08:19:03.349Z,31.36
2022-08-11T08:21:32.098Z,31.73
2022-08-11T08:24:01.310Z,32.18
2022-08-11T08:26:51.229Z,31.86
2022-08-11T08:29:40.524Z,32.07
2022-08-11T08:32:08.804Z,32.26
2022-08-11T08:34:36.462Z,32.20
2022-08-11T08:37:15.929Z,32.22
2022-08-11T08:39:55.090Z,32.12
2022-08-11T08:42:25.596Z,32.34
2022-08-11T08:44:58.749Z,32.61
2022-08-11T08:47:42.208Z,32.75
2022-08-11T08:50:16.299Z,32.11
2022-08-11T08:52:49.097Z,32.12
2022-08-11T08:55:19.894Z,32.42
2022-08-11T08:57:49.665Z,32.69
2022-08-11T09:00:23.015Z,32.98
2022-08-11T09:02:51.614Z,32.36
2022-08-11T09:05:21.212Z,32.50
2022-08-11T09:07:51.391Z,32.77
2022-08-11T09:10:21.397Z,33.15
2022-08-11T09:12:49.679Z,32.92
2022-08-11T09:15:19.672Z,32.95
2022-08-11T09:17:49.453Z,33.26
2022-08-11T09:20:20.365Z,33.77
2022-08-11T09:26:15.131Z,33.09
2022-08-11T09:28:43.793Z,33.00
2022-08-11T09:31:13.414Z,32.95
2022-08-11T09:33:42.803Z,33.32
2022-08-11T09:36:28.652Z,32.86
2022-08-11T09:39:16.724Z,32.42
2022-08-11T09:42:00.389Z,32.15
2022-08-11T09:44:48.540Z,32.03
2022-08-11T09:47:23.065Z,32.53
2022-08-11T09:49:53.137Z,32.37
2022-08-11T09:52:21.601Z,32.13
2022-08-11T09:54:51.013Z,31.85
2022-08-11T09:57:41.217Z,32.18
2022-08-11T10:00:13.130Z,32.38
2022-08-11T10:02:43.659Z,32.21
2022-08-11T10:05:30.117Z,32.34
2022-08-11T10:07:58.010Z,32.54
2022-08-11T10:10:26.074Z,32.00
2022-08-11T10:12:59.719Z,31.57
2022-08-11T10:15:38.742Z,31.77
2022-08-11T10:18:27.033Z,32.35
2022-08-11T10:20:58.887Z,32.71
2022-08-11T10:24:00.857Z,32.52
2022-08-11T10:26:54.322Z,32.11
2022-08-11T10:29:45.393Z,32.22
2022-08-11T10:32:49.383Z,31.86
2022-08-11T10:35:26.938Z,31.90
2022-08-11T10:38:07.948Z,32.31
2022-08-11T10:40:41.054Z,32.86
2022-08-11T10:43:13.362Z,33.03
2022-08-11T10:46:01.946Z,32.85
2022-08-11T10:48:32.141Z,33.19
2022-08-11T10:51:15.307Z,33.73
2022-08-11T10:54:04.271Z,33.68
2022-08-11T10:56:52.082Z,33.42
2022-08-11T10:59:19.979Z,34.08
2022-08-11T11:01:49.082Z,33.86
2022-08-11T11:04:17.422Z,33.93
2022-08-11T11:06:51.849Z,34.22
2022-08-11T11:09:21.858Z,34.37
2022-08-11T11:12:09.335Z,34.23
2022-08-11T11:14:59.021Z,34.21
2022-08-11T11:17:50.720Z,33.78
2022-08-11T11:20:36.957Z,33.44
2022-08-11T11:23:08.927Z,33.36
2022-08-11T11:25:45.059Z,33.09
2022-08-11T11:28:34.494Z,33.32
2022-08-11T11:31:12.709Z,33.54
2022-08-11T11:34:12.264Z,32.93
2022-08-11T11:36:46.515Z,33.36
2022-08-11T11:39:14.660Z,33.74
2022-08-11T11:41:43.163Z,33.97
2022-08-11T11:44:13.473Z,33.82
2022-08-11T11:46:41.325Z,33.95
2022-08-11T11:49:13.959Z,33.76
2022-08-11T11:51:44.785Z,34.30
2022-08-11T11:54:15.305Z,34.19
2022-08-11T11:56:43.968Z,32.93
2022-08-11T11:59:30.045Z,33.66
2022-08-11T12:01:57.914Z,34.18
2022-08-11T12:04:27.673Z,34.40
2022-08-11T12:07:15.414Z,34.69
2022-08-11T12:09:43.170Z,35.22
2022-08-11T12:12:28.170Z,35.50
2022-08-11T12:14:56.313Z,35.45
2022-08-11T12:17:24.705Z,35.84
2022-08-11T12:19:53.923Z,35.89
2022-08-11T12:22:42.577Z,36.50
2022-08-11T12:25:28.209Z,35.16
2022-08-11T12:27:56.486Z,35.89
2022-08-11T12:30:24.625Z,35.88
2022-08-11T12:32:53.462Z,35.71
2022-08-11T12:35:22.890Z,36.03
2022-08-11T12:38:02.630Z,35.96
2022-08-11T12:44:01.818Z,35.58
2022-08-11T12:46:32.175Z,35.60
2022-08-11T12:49:18.238Z,35.22
2022-08-11T12:52:11.398Z,35.80
2022-08-11T12:54:57.184Z,36.62
2022-08-11T12:57:46.277Z,36.74
2022-08-11T13:00:32.895Z,36.11
2022-08-11T13:03:18.237Z,35.98
2022-08-11T13:05:47.596Z,35.80
2022-08-11T13:08:17.641Z,35.96
2022-08-11T13:11:03.964Z,36.43
2022-08-11T13:13:55.458Z,36.80
2022-08-11T13:16:20.439Z,36.62
2022-08-11T13:18:48.285Z,36.27
2022-08-11T13:21:20.685Z,35.58
2022-08-11T13:24:01.115Z,36.52
2022-08-11T13:26:43.553Z,37.07
2022-08-11T13:29:17.461Z,37.95
2022-08-11T13:31:45.888Z,36.84
2022-08-11T13:34:13.686Z,37.19
2022-08-11T13:36:42.214Z,36.46
2022-08-11T13:39:11.517Z,36.44
2022-08-11T13:41:41.962Z,36.29
2022-08-11T13:44:12.284Z,36.96
2022-08-11T13:46:40.566Z,36.63
2022-08-11T13:49:12.306Z,36.14
2022-08-11T13:51:40.003Z,36.97
2022-08-11T13:54:09.070Z,36.61
2022-08-11T13:56:40.596Z,36.27
2022-08-11T13:59:09.271Z,36.89
2022-08-11T14:02:20.055Z,37.12
2022-08-11T14:04:32.240Z,37.27
2022-08-11T14:07:01.355Z,37.36
2022-08-11T14:09:31.985Z,37.96
2022-08-11T14:12:24.343Z,37.53
2022-08-11T14:15:02.223Z,37.30
2022-08-11T14:17:36.048Z,37.50
2022-08-11T14:20:39.872Z,37.96
2022-08-11T14:23:04.999Z,38.42
2022-08-11T14:26:01.039Z,38.66
2022-08-11T14:28:33.091Z,38.23
2022-08-11T14:31:05.377Z,37.29
2022-08-11T14:34:00.377Z,37.39
2022-08-11T14:36:22.397Z,37.42
2022-08-11T14:38:50.621Z,37.71
2022-08-11T14:41:36.659Z,37.08
2022-08-11T14:44:23.465Z,37.22
2022-08-11T14:47:24.008Z,37.59
2022-08-11T14:50:10.458Z,38.27
2022-08-11T14:52:49.744Z,38.24
2022-08-11T14:55:35.853Z,38.76
2022-08-11T14:58:03.982Z,37.96
2022-08-11T15:00:34.030Z,37.97
2022-08-11T15:03:10.446Z,38.41
2022-08-11T15:05:42.156Z,38.04
2022-08-11T15:08:48.017Z,37.52
2022-08-11T15:11:35.706Z,37.41
2022-08-11T15:14:04.718Z,37.62
2022-08-11T15:16:51.453Z,37.62
2022-08-11T15:19:20.921Z,37.48
2022-08-11T15:22:52.641Z,37.61
2022-08-11T15:25:21.040Z,37.80
2022-08-11T15:28:08.870Z,37.69
2022-08-11T15:30:55.467Z,37.27
2022-08-11T15:33:40.813Z,38.10
2022-08-11T15:36:27.973Z,37.92
2022-08-11T15:38:59.547Z,37.80
2022-08-11T15:41:54.488Z,37.04
2022-08-11T15:45:08.576Z,36.67
2022-08-11T15:47:39.299Z,37.15
2022-08-11T15:50:14.021Z,37.25
2022-08-11T15:52:47.506Z,37.47
2022-08-11T15:55:17.245Z,37.23
2022-08-11T15:58:03.105Z,36.49
2022-08-11T16:00:48.774Z,36.11
2022-08-11T16:04:07.119Z,35.47
2022-08-11T16:06:33.545Z,35.03
2022-08-11T16:09:05.784Z,34.47
2022-08-11T16:11:38.654Z,34.08
2022-08-11T16:14:24.509Z,34.30
2022-08-11T16:16:56.036Z,34.43
2022-08-11T16:19:24.333Z,33.68
2022-08-11T16:21:52.982Z,33.30
2022-08-11T16:27:01.456Z,33.17
2022-08-11T16:27:14.518Z,32.05
2022-08-11T16:29:47.698Z,31.92
2022-08-11T16:32:18.614Z,31.52
2022-08-11T16:35:06.685Z,31.42
2022-08-11T16:37:53.198Z,31.15
2022-08-11T16:40:22.559Z,31.13
2022-08-11T16:43:11.678Z,30.85
2022-08-11T16:45:57.750Z,30.77
2022-08-11T16:48:36.000Z,30.21
2022-08-11T16:51:06.170Z,30.22
2022-08-11T16:54:01.347Z,29.98
2022-08-11T16:56:23.337Z,29.72
2022-08-11T16:59:13.000Z,29.80
2022-08-11T17:01:40.947Z,29.62
2022-08-11T17:04:31.422Z,29.55
2022-08-11T17:07:40.098Z,29.57
2022-08-11T17:10:39.609Z,29.33
2022-08-11T17:13:12.804Z,29.27
2022-08-11T17:16:03.649Z,29.24
2022-08-11T17:18:40.969Z,29.17
2022-08-11T17:21:09.262Z,29.23
2022-08-11T17:23:52.501Z,29.09
2022-08-11T17:26:23.034Z,29.16
2022-08-11T17:28:53.957Z,29.19
2022-08-11T17:31:42.286Z,29.07
2022-08-11T17:34:27.963Z,28.95
2022-08-11T17:36:56.072Z,28.75
2022-08-11T17:39:29.084Z,28.87
2022-08-11T17:42:14.897Z,28.86
2022-08-11T17:45:01.025Z,28.67
2022-08-11T17:47:48.520Z,28.72
2022-08-11T17:50:16.435Z,28.44
2022-08-11T17:53:04.072Z,28.49
2022-08-11T17:55:52.312Z,28.34
2022-08-11T17:58:39.277Z,28.54
2022-08-11T18:01:08.744Z,28.35
2022-08-11T18:03:39.587Z,28.43
2022-08-11T18:06:12.205Z,28.43
2022-08-11T18:09:01.805Z,28.21
2022-08-11T18:12:06.571Z,27.98
2022-08-11T18:14:55.797Z,27.93
2022-08-11T18:17:41.146Z,27.76
2022-08-11T18:20:28.600Z,27.56
2022-08-11T18:23:14.135Z,27.38
2022-08-11T18:26:01.081Z,27.14
2022-08-11T18:28:49.439Z,27.02
2022-08-11T18:31:35.066Z,26.77
2022-08-11T18:34:22.722Z,26.49
2022-08-11T18:37:21.936Z,26.17
2022-08-11T18:40:14.494Z,25.72
2022-08-11T18:43:00.725Z,25.36
2022-08-11T18:45:46.422Z,25.22
2022-08-11T18:48:35.925Z,24.95
2022-08-11T18:51:30.842Z,24.75
2022-08-11T18:54:25.720Z,24.49
2022-08-11T18:57:12.090Z,24.21
2022-08-11T18:59:59.009Z,24.00
2022-08-11T19:02:48.580Z,23.78
2022-08-11T19:06:31.666Z,23.50
2022-08-11T19:08:42.228Z,23.10
2022-08-11T19:11:29.188Z,22.96
2022-08-11T19:14:14.812Z,22.83
2022-08-11T19:17:00.157Z,22.65
2022-08-11T19:19:47.848Z,22.50
2022-08-11T19:22:34.406Z,22.40
2022-08-11T19:25:25.133Z,22.25
2022-08-11T19:28:12.853Z,22.08
2022-08-11T19:30:59.810Z,21.90
2022-08-11T19:34:02.597Z,21.76
2022-08-11T19:36:50.886Z,21.60
2022-08-11T19:39:38.001Z,21.46
2022-08-11T19:42:24.474Z,21.35
2022-08-11T19:45:11.227Z,21.23
2022-08-11T19:48:14.436Z,21.15
2022-08-11T19:51:01.361Z,21.04
2022-08-11T19:53:48.723Z,20.80
2022-08-11T19:56:34.277Z,20.66
2022-08-11T19:59:19.801Z,20.50
2022-08-11T20:02:14.389Z,20.31
2022-08-11T20:05:00.239Z,20.06
2022-08-11T20:07:46.760Z,20.01
2022-08-11T20:10:34.682Z,19.98
2022-08-11T20:13:21.766Z,20.02
2022-08-11T20:16:07.374Z,19.94
2022-08-11T20:18:54.068Z,19.96
2022-08-11T20:21:40.067Z,19.95
2022-08-11T20:24:25.912Z,19.90
2022-08-11T20:27:18.741Z,19.80
2022-08-11T20:30:11.329Z,19.53
2022-08-11T20:32:57.410Z,19.46
2022-08-11T20:35:44.453Z,19.53
2022-08-11T20:38:30.603Z,19.52
2022-08-11T20:41:16.469Z,19.52
2022-08-11T20:44:08.333Z,19.49
2022-08-11T20:46:58.626Z,19.49
2022-08-11T20:49:53.642Z,19.35
2022-08-11T20:52:47.205Z,19.21
2022-08-11T20:55:46.294Z,19.23
2022-08-11T20:59:13.423Z,19.19
2022-08-11T21:01:45.482Z,19.13
2022-08-11T21:04:30.951Z,18.96
2022-08-11T21:07:23.564Z,18.93
2022-08-11T21:10:22.788Z,18.88
2022-08-11T21:13:25.728Z,18.75
2022-08-11T21:16:26.586Z,18.76
2022-08-11T21:19:16.125Z,18.73
2022-08-11T21:22:03.514Z,18.65
2022-08-11T21:24:49.572Z,18.59
2022-08-11T21:27:36.998Z,18.44
2022-08-11T21:30:22.955Z,18.44
2022-08-11T21:33:08.817Z,18.47
2022-08-11T21:35:54.091Z,18.41
2022-08-11T21:38:39.158Z,18.30
2022-08-11T21:41:25.129Z,18.26
2022-08-11T21:44:12.637Z,18.12
2022-08-11T21:46:58.572Z,17.87
2022-08-11T21:49:44.022Z,17.79
2022-08-11T21:52:29.341Z,17.78
2022-08-11T21:55:15.257Z,17.75
2022-08-11T21:58:00.840Z,17.69
2022-08-11T22:00:47.534Z,17.62
2022-08-11T22:03:36.533Z,17.69
2022-08-11T22:06:35.684Z,17.70
2022-08-11T22:09:21.663Z,17.72
2022-08-11T22:12:29.695Z,17.69
2022-08-11T22:15:11.917Z,17.62
2022-08-11T22:17:58.413Z,17.61
2022-08-11T22:20:45.322Z,17.61
2022-08-11T22:23:35.877Z,17.55
2022-08-11T22:26:22.958Z,17.50
2022-08-11T22:29:09.546Z,17.52
2022-08-11T22:31:55.119Z,17.51
2022-08-11T22:34:53.076Z,17.41
2022-08-11T22:37:39.602Z,17.44
2022-08-11T22:40:26.493Z,17.42
2022-08-11T22:43:11.593Z,17.36
2022-08-11T22:45:57.322Z,17.21
2022-08-11T22:48:43.963Z,17.22
2022-08-11T22:51:31.166Z,17.19
2022-08-11T22:54:16.298Z,17.21
2022-08-11T22:57:01.248Z,17.17
2022-08-11T22:59:46.346Z,16.95
2022-08-11T23:02:32.177Z,17.01
2022-08-11T23:05:18.157Z,16.97
2022-08-11T23:08:04.782Z,16.94
2022-08-11T23:10:50.216Z,16.89
2022-08-11T23:13:35.525Z,16.91
2022-08-11T23:16:21.322Z,16.88
2022-08-11T23:19:06.969Z,16.80
2022-08-11T23:21:53.361Z,16.80
2022-08-11T23:24:40.569Z,16.63
2022-08-11T23:27:27.299Z,16.64
2022-08-11T23:30:17.137Z,16.50
2022-08-11T23:33:05.241Z,16.27
2022-08-11T23:35:56.525Z,16.30
2022-08-11T23:38:43.028Z,16.26
2022-08-11T23:41:29.551Z,16.05
2022-08-11T23:44:14.868Z,16.10
2022-08-11T23:47:00.526Z,16.03
2022-08-11T23:49:45.778Z,16.02
2022-08-11T23:52:30.964Z,16.09
2022-08-11T23:55:16.443Z,16.10
2022-08-11T23:58:02.952Z,16.14
